createdAt,value
2019-01-30T00:00:00.934Z,0.20
2019-01-30T00:02:27.466Z,0.00
2019-01-30T00:04:54.053Z,-0.10
2019-01-30T00:07:20.629Z,-0.10
2019-01-30T00:09:47.205Z,0.00
2019-01-30T00:12:13.813Z,-0.20
2019-01-30T00:14:40.385Z,-0.20
2019-01-30T00:17:06.926Z,-0.10
2019-01-30T00:19:33.631Z,0.00
2019-01-30T00:22:00.162Z,0.10
2019-01-30T00:24:26.645Z,0.10
2019-01-30T00:26:53.384Z,0.20
2019-01-30T00:29:19.960Z,0.10
2019-01-30T00:31:46.455Z,0.10
2019-01-30T00:34:13.200Z,0.10
2019-01-30T00:36:39.839Z,0.10
2019-01-30T00:39:06.730Z,0.00
2019-01-30T00:41:33.323Z,0.00
2019-01-30T00:44:00.003Z,0.00
2019-01-30T00:46:26.587Z,0.00
2019-01-30T00:48:53.332Z,0.10
2019-01-30T00:51:20.026Z,0.00
2019-01-30T00:53:46.677Z,-0.10
2019-01-30T00:56:13.367Z,0.00
2019-01-30T00:58:40.005Z,-0.30
2019-01-30T01:01:06.693Z,-0.30
2019-01-30T01:03:33.569Z,-0.40
2019-01-30T01:06:00.101Z,-0.40
2019-01-30T01:08:26.690Z,-0.20
2019-01-30T01:10:53.347Z,-0.20
2019-01-30T01:13:19.993Z,-0.20
2019-01-30T01:15:46.568Z,-0.40
2019-01-30T01:18:13.308Z,-0.20
2019-01-30T01:20:40.001Z,-0.10
2019-01-30T01:23:07.672Z,-0.10
2019-01-30T01:25:34.271Z,-0.20
2019-01-30T01:28:01.014Z,-0.20
2019-01-30T01:30:27.955Z,-0.30
2019-01-30T01:32:54.833Z,-0.30
2019-01-30T01:35:21.989Z,-0.20
2019-01-30T01:37:48.573Z,-0.30
2019-01-30T01:40:15.534Z,-0.50
2019-01-30T01:42:42.211Z,-0.30
2019-01-30T01:45:14.438Z,-0.30
2019-01-30T01:47:41.189Z,-0.20
2019-01-30T01:50:11.297Z,-0.10
2019-01-30T01:52:39.520Z,-0.10
2019-01-30T01:55:08.710Z,-0.20
2019-01-30T01:57:35.349Z,-0.30
2019-01-30T02:00:03.523Z,-0.20
2019-01-30T02:02:30.133Z,-0.20
2019-01-30T02:04:56.668Z,-0.10
2019-01-30T02:07:23.202Z,-0.30
2019-01-30T02:09:49.772Z,-0.30
2019-01-30T02:12:16.312Z,-0.40
2019-01-30T02:14:42.915Z,-0.30
2019-01-30T02:17:09.573Z,-0.40
2019-01-30T02:19:36.109Z,-0.40
2019-01-30T02:22:02.892Z,-0.30
2019-01-30T02:24:29.485Z,-0.30
2019-01-30T02:26:56.030Z,-0.30
2019-01-30T02:29:22.769Z,-0.30
2019-01-30T02:31:49.412Z,-0.30
2019-01-30T02:34:16.112Z,-0.50
2019-01-30T02:36:57.827Z,-0.40
2019-01-30T02:39:24.370Z,-0.40
2019-01-30T02:41:51.449Z,-0.50
2019-01-30T02:44:18.131Z,-0.40
2019-01-30T02:46:44.685Z,-0.60
2019-01-30T02:49:11.266Z,-0.50
2019-01-30T02:51:37.804Z,-0.50
2019-01-30T02:54:04.497Z,-0.30
2019-01-30T02:56:31.036Z,-0.50
2019-01-30T02:58:57.692Z,-0.60
2019-01-30T03:01:24.186Z,-0.70
2019-01-30T03:03:50.853Z,-0.60
2019-01-30T03:06:17.449Z,-0.50
2019-01-30T03:08:44.030Z,-0.60
2019-01-30T03:11:10.668Z,-0.60
2019-01-30T03:13:37.241Z,-0.50
2019-01-30T03:16:04.032Z,-0.60
2019-01-30T03:18:30.576Z,-0.80
2019-01-30T03:20:57.174Z,-0.80
2019-01-30T03:23:23.919Z,-0.70
2019-01-30T03:25:50.535Z,-0.60
2019-01-30T03:28:17.069Z,-0.40
2019-01-30T03:30:43.814Z,-0.60
2019-01-30T03:33:10.502Z,-0.70
2019-01-30T03:35:37.088Z,-0.70
2019-01-30T03:38:03.725Z,-0.70
2019-01-30T03:40:30.514Z,-0.60
2019-01-30T03:42:57.153Z,-0.70
2019-01-30T03:45:24.320Z,-0.80
2019-01-30T03:47:51.332Z,-0.90
2019-01-30T03:50:18.022Z,-0.80
2019-01-30T03:52:45.754Z,-0.90
2019-01-30T03:55:15.299Z,-1.00
2019-01-30T03:57:44.055Z,-0.80
2019-01-30T04:00:19.777Z,-0.80
2019-01-30T04:02:46.621Z,-0.80
2019-01-30T04:05:13.364Z,-0.90
2019-01-30T04:07:40.003Z,-0.90
2019-01-30T04:10:15.750Z,-0.90
2019-01-30T04:12:42.220Z,-1.00
2019-01-30T04:15:09.132Z,-0.80
2019-01-30T04:17:35.818Z,-0.90
2019-01-30T04:20:06.614Z,-1.00
2019-01-30T04:22:33.237Z,-0.90
2019-01-30T04:24:59.834Z,-0.90
2019-01-30T04:27:26.478Z,-0.90
2019-01-30T04:29:53.141Z,-0.90
2019-01-30T04:32:19.693Z,-0.90
2019-01-30T04:34:46.253Z,-0.80
2019-01-30T04:37:13.026Z,-0.80
2019-01-30T04:39:39.695Z,-0.90
2019-01-30T04:42:06.231Z,-0.90
2019-01-30T04:44:32.810Z,-0.90
2019-01-30T04:46:59.445Z,-0.90
2019-01-30T04:49:26.014Z,-0.90
2019-01-30T04:51:52.586Z,-1.00
2019-01-30T04:54:19.153Z,-1.00
2019-01-30T04:56:45.695Z,-1.20
2019-01-30T04:59:12.356Z,-1.10
2019-01-30T05:01:49.199Z,-1.00
2019-01-30T05:04:07.261Z,-1.10
2019-01-30T05:06:33.938Z,-1.10
2019-01-30T05:09:00.490Z,-1.00
2019-01-30T05:11:27.051Z,-0.90
2019-01-30T05:13:53.714Z,-1.00
2019-01-30T05:16:20.284Z,-1.10
2019-01-30T05:18:46.731Z,-1.20
2019-01-30T05:21:13.296Z,-1.10
2019-01-30T05:23:39.826Z,-1.20
2019-01-30T05:26:06.434Z,-1.20
2019-01-30T05:28:34.639Z,-1.20
2019-01-30T05:31:01.306Z,-1.30
2019-01-30T05:33:29.144Z,-1.20
2019-01-30T05:35:55.812Z,-0.90
2019-01-30T05:38:22.564Z,-0.90
2019-01-30T05:40:49.343Z,-1.00
2019-01-30T05:43:15.875Z,-1.00
2019-01-30T05:45:42.516Z,-0.90
2019-01-30T05:48:09.046Z,-0.90
2019-01-30T05:50:35.621Z,-0.90
2019-01-30T05:53:02.565Z,-1.00
2019-01-30T05:55:29.129Z,-0.90
2019-01-30T05:57:55.859Z,-0.90
2019-01-30T06:00:27.732Z,-0.90
2019-01-30T06:02:54.404Z,-0.90
2019-01-30T06:05:21.044Z,-0.90
2019-01-30T06:07:47.578Z,-0.90
2019-01-30T06:10:14.312Z,-0.90
2019-01-30T06:12:40.846Z,-1.00
2019-01-30T06:15:16.194Z,-1.10
2019-01-30T06:17:42.730Z,-1.10
2019-01-30T06:20:15.477Z,-1.10
2019-01-30T06:22:43.817Z,-1.00
2019-01-30T06:25:10.694Z,-1.00
2019-01-30T06:27:37.527Z,-1.00
2019-01-30T06:30:11.198Z,-1.00
2019-01-30T06:32:37.836Z,-1.00
2019-01-30T06:35:05.600Z,-1.00
2019-01-30T06:37:32.238Z,-1.00
2019-01-30T06:39:58.858Z,-0.90
2019-01-30T06:42:25.412Z,-0.90
2019-01-30T06:44:51.977Z,-0.70
2019-01-30T06:47:18.639Z,-0.90
2019-01-30T06:49:45.181Z,-0.80
2019-01-30T06:52:11.737Z,-0.80
2019-01-30T06:54:38.294Z,-0.90
2019-01-30T06:57:04.850Z,-1.00
2019-01-30T06:59:31.500Z,-0.90
2019-01-30T07:01:58.259Z,-1.00
2019-01-30T07:04:24.896Z,-0.90
2019-01-30T07:06:51.658Z,-0.70
2019-01-30T07:09:18.200Z,-0.80
2019-01-30T07:11:44.830Z,-0.80
2019-01-30T07:14:11.382Z,-0.70
2019-01-30T07:16:38.116Z,-0.70
2019-01-30T07:19:04.711Z,-0.70
2019-01-30T07:21:31.487Z,-0.70
2019-01-30T07:23:58.226Z,-0.60
2019-01-30T07:26:24.921Z,-0.60
2019-01-30T07:28:51.665Z,-0.70
2019-01-30T07:31:19.283Z,-0.60
2019-01-30T07:33:47.273Z,-0.50
2019-01-30T07:36:14.041Z,-0.50
2019-01-30T07:38:40.702Z,-0.60
2019-01-30T07:41:07.262Z,-0.70
2019-01-30T07:43:34.311Z,-0.60
2019-01-30T07:46:01.216Z,-0.50
2019-01-30T07:48:29.017Z,-0.30
2019-01-30T07:50:55.918Z,-0.10
2019-01-30T07:53:22.758Z,-0.20
2019-01-30T07:55:49.643Z,-0.10
2019-01-30T07:58:16.183Z,0.00
2019-01-30T08:00:42.716Z,-0.10
2019-01-30T08:03:09.395Z,-0.10
2019-01-30T08:05:36.128Z,0.00
2019-01-30T08:08:03.297Z,0.00
2019-01-30T08:10:30.026Z,-0.10
2019-01-30T08:12:56.802Z,-0.10
2019-01-30T08:15:23.842Z,-0.20
2019-01-30T08:17:52.306Z,-0.20
2019-01-30T08:20:20.759Z,-0.10
2019-01-30T08:22:47.527Z,0.00
2019-01-30T08:25:16.400Z,0.20
2019-01-30T08:27:43.609Z,0.10
2019-01-30T08:30:22.405Z,0.20
2019-01-30T08:32:42.442Z,0.10
2019-01-30T08:35:10.265Z,0.20
2019-01-30T08:37:38.445Z,0.20
2019-01-30T08:40:09.435Z,0.00
2019-01-30T08:42:36.143Z,0.10
2019-01-30T08:45:06.573Z,0.30
2019-01-30T08:47:33.402Z,0.30
2019-01-30T08:49:59.954Z,0.30
2019-01-30T08:52:26.521Z,0.50
2019-01-30T08:54:53.154Z,0.40
2019-01-30T08:57:19.916Z,0.40
2019-01-30T08:59:46.458Z,0.40
2019-01-30T09:02:13.131Z,0.70
2019-01-30T09:04:39.661Z,0.60
2019-01-30T09:07:06.287Z,0.80
2019-01-30T09:09:32.826Z,0.80
2019-01-30T09:11:59.387Z,0.80
2019-01-30T09:14:25.917Z,0.80
2019-01-30T09:16:52.485Z,0.90
2019-01-30T09:19:19.133Z,1.00
2019-01-30T09:21:45.706Z,0.90
2019-01-30T09:24:12.237Z,1.00
2019-01-30T09:26:38.767Z,1.20
2019-01-30T09:29:05.635Z,1.00
2019-01-30T09:31:32.180Z,1.00
2019-01-30T09:33:58.751Z,1.20
2019-01-30T09:36:25.381Z,1.10
2019-01-30T09:38:52.041Z,1.20
2019-01-30T09:41:18.685Z,1.30
2019-01-30T09:43:45.397Z,1.40
2019-01-30T09:46:11.989Z,1.30
2019-01-30T09:48:38.622Z,1.30
2019-01-30T09:51:05.169Z,1.30
2019-01-30T09:53:31.824Z,1.20
2019-01-30T09:55:58.385Z,1.30
2019-01-30T09:58:24.950Z,1.40
2019-01-30T10:00:51.585Z,1.40
2019-01-30T10:03:18.256Z,1.30
2019-01-30T10:05:44.801Z,1.40
2019-01-30T10:08:11.637Z,1.50
2019-01-30T10:10:39.590Z,1.60
2019-01-30T10:13:06.933Z,1.60
2019-01-30T10:15:41.595Z,1.50
2019-01-30T10:18:09.072Z,1.60
2019-01-30T10:20:36.806Z,1.50
2019-01-30T10:23:03.771Z,1.60
2019-01-30T10:25:30.396Z,1.70
2019-01-30T10:27:57.140Z,1.80
2019-01-30T10:30:29.133Z,1.90
2019-01-30T10:32:55.792Z,1.80
2019-01-30T10:35:22.642Z,1.80
2019-01-30T10:37:49.324Z,1.90
2019-01-30T10:40:20.009Z,2.00
2019-01-30T10:42:47.277Z,1.80
2019-01-30T10:45:14.345Z,1.90
2019-01-30T10:47:40.920Z,2.10
2019-01-30T10:50:22.536Z,2.20
2019-01-30T10:52:49.210Z,2.10
2019-01-30T10:55:18.952Z,2.10
2019-01-30T10:57:47.112Z,2.20
2019-01-30T11:00:22.682Z,2.20
2019-01-30T11:02:51.063Z,2.30
2019-01-30T11:05:17.656Z,2.10
2019-01-30T11:07:44.223Z,2.20
2019-01-30T11:10:14.168Z,2.30
2019-01-30T11:12:40.714Z,2.30
2019-01-30T11:15:10.493Z,2.40
2019-01-30T11:17:36.928Z,2.40
2019-01-30T11:20:07.397Z,2.30
2019-01-30T11:22:33.820Z,2.40
2019-01-30T11:25:00.443Z,2.40
2019-01-30T11:27:26.934Z,2.60
2019-01-30T11:29:53.397Z,2.70
2019-01-30T11:32:19.941Z,2.80
2019-01-30T11:34:46.512Z,2.90
2019-01-30T11:37:13.253Z,2.90
2019-01-30T11:39:39.845Z,2.90
2019-01-30T11:42:06.481Z,2.90
2019-01-30T11:44:33.488Z,2.90
2019-01-30T11:47:00.055Z,3.10
2019-01-30T11:49:26.590Z,3.00
2019-01-30T11:51:53.149Z,3.10
2019-01-30T11:54:19.797Z,3.10
2019-01-30T11:56:46.473Z,3.30
2019-01-30T11:59:13.018Z,3.40
2019-01-30T12:01:39.751Z,3.30
2019-01-30T12:04:06.295Z,3.40
2019-01-30T12:06:32.884Z,3.40
2019-01-30T12:08:59.442Z,3.30
2019-01-30T12:11:26.287Z,3.50
2019-01-30T12:13:52.821Z,3.50
2019-01-30T12:16:19.368Z,3.70
2019-01-30T12:18:46.188Z,3.80
2019-01-30T12:21:12.829Z,3.80
2019-01-30T12:23:39.502Z,3.80
2019-01-30T12:26:06.138Z,3.90
2019-01-30T12:28:32.705Z,3.70
2019-01-30T12:30:59.348Z,3.80
2019-01-30T12:33:26.008Z,3.80
2019-01-30T12:35:52.554Z,3.70
2019-01-30T12:38:19.124Z,3.70
2019-01-30T12:40:45.657Z,3.80
2019-01-30T12:43:12.279Z,3.60
2019-01-30T12:45:38.862Z,3.80
2019-01-30T12:48:06.137Z,3.70
2019-01-30T12:50:32.989Z,3.70
2019-01-30T12:52:59.552Z,3.60
2019-01-30T12:55:29.210Z,3.60
2019-01-30T12:57:54.969Z,3.60
2019-01-30T13:00:27.193Z,3.70
2019-01-30T13:02:53.961Z,3.70
2019-01-30T13:05:22.209Z,3.60
2019-01-30T13:07:48.840Z,3.70
2019-01-30T13:10:15.369Z,3.90
2019-01-30T13:12:42.154Z,3.80
2019-01-30T13:15:17.278Z,3.90
2019-01-30T13:17:46.577Z,3.90
2019-01-30T13:20:14.452Z,4.10
2019-01-30T13:22:41.121Z,4.30
2019-01-30T13:25:09.451Z,4.50
2019-01-30T13:27:36.175Z,4.80
2019-01-30T13:30:06.557Z,5.10
2019-01-30T13:32:33.202Z,5.30
2019-01-30T13:34:59.752Z,5.50
2019-01-30T13:37:26.521Z,5.50
2019-01-30T13:39:53.261Z,5.90
2019-01-30T13:42:19.926Z,5.90
2019-01-30T13:44:46.499Z,5.90
2019-01-30T13:47:13.246Z,5.60
2019-01-30T13:49:39.818Z,5.70
2019-01-30T13:52:06.552Z,5.70
2019-01-30T13:54:34.337Z,6.00
2019-01-30T13:57:01.982Z,6.50
2019-01-30T13:59:28.922Z,6.30
2019-01-30T14:01:55.687Z,6.50
2019-01-30T14:04:22.837Z,6.10
2019-01-30T14:06:49.370Z,5.90
2019-01-30T14:09:16.048Z,5.90
2019-01-30T14:11:42.843Z,6.00
2019-01-30T14:14:09.650Z,5.90
2019-01-30T14:16:36.472Z,5.90
2019-01-30T14:19:03.320Z,5.70
2019-01-30T14:21:30.214Z,5.60
2019-01-30T14:23:56.859Z,5.90
2019-01-30T14:26:23.746Z,6.30
2019-01-30T14:28:50.410Z,7.00
2019-01-30T14:31:17.052Z,7.30
2019-01-30T14:33:43.965Z,7.50
2019-01-30T14:36:10.974Z,7.50
2019-01-30T14:38:37.561Z,7.60
2019-01-30T14:41:04.657Z,7.50
2019-01-30T14:43:31.298Z,7.40
2019-01-30T14:45:58.011Z,7.30
2019-01-30T14:48:24.742Z,7.10
2019-01-30T14:50:51.425Z,6.80
2019-01-30T14:53:18.525Z,6.60
2019-01-30T14:55:45.443Z,6.60
2019-01-30T14:58:13.069Z,6.10
2019-01-30T15:00:39.997Z,6.00
2019-01-30T15:03:07.769Z,5.70
2019-01-30T15:05:34.618Z,5.50
2019-01-30T15:08:02.076Z,5.20
2019-01-30T15:10:29.362Z,5.00
2019-01-30T15:12:56.236Z,4.90
2019-01-30T15:15:28.173Z,4.60
2019-01-30T15:17:56.193Z,4.20
2019-01-30T15:20:34.107Z,4.10
2019-01-30T15:23:01.329Z,3.90
2019-01-30T15:25:29.482Z,3.90
2019-01-30T15:27:57.665Z,3.70
2019-01-30T15:30:27.372Z,3.50
2019-01-30T15:32:54.285Z,3.40
2019-01-30T15:35:32.864Z,3.40
2019-01-30T15:37:51.298Z,3.30
2019-01-30T15:40:21.276Z,3.20
2019-01-30T15:42:49.330Z,3.10
2019-01-30T15:45:19.574Z,3.00
2019-01-30T15:47:46.622Z,2.90
2019-01-30T15:50:19.040Z,3.00
2019-01-30T15:52:46.461Z,2.90
2019-01-30T15:55:14.564Z,2.80
2019-01-30T15:57:44.262Z,2.70
2019-01-30T16:00:20.613Z,2.70
2019-01-30T16:02:48.325Z,2.70
2019-01-30T16:05:16.034Z,2.60
2019-01-30T16:07:43.594Z,2.60
2019-01-30T16:10:13.119Z,2.60
2019-01-30T16:12:41.609Z,2.60
2019-01-30T16:15:27.028Z,2.60
2019-01-30T16:17:53.993Z,2.60
2019-01-30T16:20:21.759Z,2.40
2019-01-30T16:22:49.268Z,2.50
2019-01-30T16:25:18.941Z,2.30
2019-01-30T16:27:45.932Z,2.30
2019-01-30T16:30:18.444Z,2.50
2019-01-30T16:32:45.292Z,2.40
2019-01-30T16:35:15.031Z,2.40
2019-01-30T16:37:43.580Z,2.40
2019-01-30T16:40:13.949Z,2.30
2019-01-30T16:42:41.978Z,2.40
2019-01-30T16:45:17.741Z,2.50
2019-01-30T16:47:45.448Z,2.40
2019-01-30T16:50:14.632Z,2.30
2019-01-30T16:52:42.228Z,2.30
2019-01-30T16:55:11.640Z,2.40
2019-01-30T16:57:39.366Z,2.40
2019-01-30T17:00:24.316Z,2.40
2019-01-30T17:02:52.049Z,2.30
2019-01-30T17:05:20.408Z,2.20
2019-01-30T17:07:48.708Z,2.30
2019-01-30T17:10:17.585Z,2.30
2019-01-30T17:12:45.701Z,2.10
2019-01-30T17:15:21.433Z,2.30
2019-01-30T17:17:49.594Z,2.30
2019-01-30T17:20:20.034Z,2.30
2019-01-30T17:22:47.689Z,2.20
2019-01-30T17:25:15.385Z,2.30
2019-01-30T17:27:43.105Z,2.30
2019-01-30T17:30:29.232Z,2.20
2019-01-30T17:32:57.222Z,2.20
2019-01-30T17:35:24.989Z,2.20
2019-01-30T17:37:53.314Z,2.10
2019-01-30T17:40:22.865Z,2.10
2019-01-30T17:42:51.243Z,2.10
2019-01-30T17:45:19.575Z,2.10
2019-01-30T17:47:47.597Z,2.10
2019-01-30T17:50:21.010Z,2.10
2019-01-30T17:52:48.849Z,2.10
2019-01-30T17:55:16.879Z,2.10
2019-01-30T17:57:44.822Z,2.00
2019-01-30T18:00:20.451Z,2.00
2019-01-30T18:02:48.516Z,2.00
2019-01-30T18:05:17.050Z,2.00
2019-01-30T18:07:44.961Z,2.10
2019-01-30T18:10:17.725Z,2.00
2019-01-30T18:12:44.681Z,2.00
2019-01-30T18:15:13.330Z,1.90
2019-01-30T18:17:41.449Z,2.00
2019-01-30T18:20:15.310Z,2.00
2019-01-30T18:22:44.516Z,2.10
2019-01-30T18:25:16.911Z,2.00
2019-01-30T18:27:45.466Z,1.90
2019-01-30T18:30:21.602Z,1.90
2019-01-30T18:32:50.154Z,1.90
2019-01-30T18:35:18.902Z,1.90
2019-01-30T18:37:49.047Z,1.80
2019-01-30T18:40:19.613Z,1.80
2019-01-30T18:42:49.718Z,1.80
2019-01-30T18:45:20.671Z,1.80
2019-01-30T18:47:49.182Z,1.90
2019-01-30T18:50:25.214Z,1.90
2019-01-30T18:52:54.078Z,1.80
2019-01-30T18:55:22.564Z,1.70
2019-01-30T18:57:51.182Z,1.80
2019-01-30T19:00:24.560Z,1.60
2019-01-30T19:02:52.596Z,1.70
2019-01-30T19:05:21.151Z,1.60
2019-01-30T19:07:49.452Z,1.70
2019-01-30T19:10:18.202Z,1.70
2019-01-30T19:12:47.450Z,1.70
2019-01-30T19:15:18.245Z,1.70
2019-01-30T19:17:46.305Z,1.80
2019-01-30T19:20:19.848Z,1.80
2019-01-30T19:22:48.288Z,1.80
2019-01-30T19:25:16.502Z,1.70
2019-01-30T19:27:44.836Z,1.70
2019-01-30T19:30:21.334Z,1.80
2019-01-30T19:32:49.935Z,1.80
2019-01-30T19:35:18.622Z,1.90
2019-01-30T19:37:46.958Z,1.90
2019-01-30T19:40:15.352Z,1.90
2019-01-30T19:42:44.779Z,1.90
2019-01-30T19:45:14.898Z,1.80
2019-01-30T19:47:43.529Z,1.80
2019-01-30T19:50:14.458Z,1.70
2019-01-30T19:52:42.902Z,1.80
2019-01-30T19:55:11.281Z,1.90
2019-01-30T19:57:39.817Z,1.90
2019-01-30T20:00:25.734Z,1.90
2019-01-30T20:02:54.053Z,1.90
2019-01-30T20:05:22.263Z,1.90
2019-01-30T20:07:50.709Z,1.80
2019-01-30T20:10:21.459Z,1.80
2019-01-30T20:12:50.462Z,1.80
2019-01-30T20:15:18.705Z,1.80
2019-01-30T20:17:47.520Z,1.80
2019-01-30T20:20:17.494Z,1.90
2019-01-30T20:22:45.724Z,1.80
2019-01-30T20:25:16.690Z,1.80
2019-01-30T20:27:45.653Z,1.80
2019-01-30T20:30:16.216Z,1.70
2019-01-30T20:32:44.561Z,1.70
2019-01-30T20:35:13.195Z,1.80
2019-01-30T20:37:41.537Z,1.80
2019-01-30T20:40:12.510Z,1.70
2019-01-30T20:42:40.902Z,1.80
2019-01-30T20:45:11.349Z,1.80
2019-01-30T20:47:39.767Z,1.70
2019-01-30T20:50:16.028Z,1.70
2019-01-30T20:52:44.393Z,1.80
2019-01-30T20:55:14.642Z,1.70
2019-01-30T20:57:43.400Z,1.60
2019-01-30T21:00:22.666Z,1.70
2019-01-30T21:02:51.122Z,1.80
2019-01-30T21:05:19.645Z,1.80
2019-01-30T21:07:48.073Z,1.70
2019-01-30T21:10:22.021Z,1.70
2019-01-30T21:12:50.735Z,1.70
2019-01-30T21:15:19.053Z,1.60
2019-01-30T21:17:47.428Z,1.70
2019-01-30T21:20:16.688Z,1.70
2019-01-30T21:22:45.004Z,1.70
2019-01-30T21:25:15.357Z,1.60
2019-01-30T21:27:43.656Z,1.70
2019-01-30T21:30:29.729Z,1.70
2019-01-30T21:32:58.081Z,1.70
2019-01-30T21:35:26.456Z,1.70
2019-01-30T21:37:54.786Z,1.70
2019-01-30T21:40:22.958Z,1.60
2019-01-30T21:42:51.158Z,1.60
2019-01-30T21:45:24.051Z,1.50
2019-01-30T21:47:52.317Z,1.60
2019-01-30T21:50:20.474Z,1.60
2019-01-30T21:52:48.215Z,1.50
2019-01-30T21:55:18.012Z,1.60
2019-01-30T21:57:45.958Z,1.60
2019-01-30T22:00:18.976Z,1.60
2019-01-30T22:02:46.882Z,1.60
2019-01-30T22:05:15.141Z,1.50
2019-01-30T22:07:42.941Z,1.50
2019-01-30T22:10:13.460Z,1.60
2019-01-30T22:12:41.359Z,1.60
2019-01-30T22:15:11.080Z,1.60
2019-01-30T22:17:38.826Z,1.70
2019-01-30T22:20:09.361Z,1.50
2019-01-30T22:22:36.529Z,1.50
2019-01-30T22:25:06.448Z,1.60
2019-01-30T22:27:33.703Z,1.50
2019-01-30T22:30:01.909Z,1.50
2019-01-30T22:32:28.618Z,1.60
2019-01-30T22:34:55.266Z,1.60
2019-01-30T22:37:22.040Z,1.60
2019-01-30T22:39:48.590Z,1.70
2019-01-30T22:42:15.227Z,1.60
2019-01-30T22:44:41.815Z,1.70
2019-01-30T22:47:08.415Z,1.60
2019-01-30T22:49:34.940Z,1.60
2019-01-30T22:52:01.545Z,1.70
2019-01-30T22:54:28.192Z,1.60
2019-01-30T22:56:54.812Z,1.50
2019-01-30T22:59:21.594Z,1.60
2019-01-30T23:01:48.352Z,1.60
2019-01-30T23:04:18.924Z,1.50
2019-01-30T23:07:13.430Z,1.40
2019-01-30T23:10:12.453Z,1.40
2019-01-30T23:13:05.542Z,1.40
2019-01-30T23:15:48.109Z,1.40
2019-01-30T23:18:30.676Z,1.20
2019-01-30T23:21:01.272Z,1.40
2019-01-30T23:23:37.809Z,1.40
2019-01-30T23:26:08.190Z,1.50
2019-01-30T23:29:09.014Z,1.60
2019-01-30T23:32:03.775Z,1.50
2019-01-30T23:35:06.235Z,1.40
2019-01-30T23:37:39.294Z,1.40
2019-01-30T23:40:22.884Z,1.40
2019-01-30T23:43:05.187Z,1.50
2019-01-30T23:45:41.769Z,1.40
2019-01-30T23:48:27.262Z,1.40
2019-01-30T23:51:14.605Z,1.50
2019-01-30T23:53:53.739Z,1.50
2019-01-30T23:56:33.086Z,1.50
2019-01-30T23:59:09.437Z,1.40
